createdAt,value
2019-03-31T00:01:53.579Z,6.40
2019-03-31T00:04:24.818Z,6.30
2019-03-31T00:06:56.043Z,6.30
2019-03-31T00:09:27.294Z,6.30
2019-03-31T00:11:58.601Z,6.30
2019-03-31T00:14:30.787Z,6.40
2019-03-31T00:17:02.079Z,6.30
2019-03-31T00:19:33.329Z,5.90
2019-03-31T00:22:04.738Z,5.70
2019-03-31T00:24:36.035Z,5.60
2019-03-31T00:27:10.231Z,5.30
2019-03-31T00:29:41.537Z,5.00
2019-03-31T00:32:12.802Z,4.90
2019-03-31T00:34:44.033Z,5.00
2019-03-31T00:37:15.325Z,5.20
2019-03-31T00:39:46.643Z,5.20
2019-03-31T00:42:17.981Z,5.30
2019-03-31T00:44:49.312Z,5.40
2019-03-31T00:47:22.347Z,5.40
2019-03-31T00:49:53.599Z,5.50
2019-03-31T00:52:24.877Z,5.60
2019-03-31T00:54:56.238Z,5.60
2019-03-31T00:57:27.568Z,5.70
2019-03-31T00:59:58.664Z,5.70
2019-03-31T01:02:32.366Z,5.70
2019-03-31T01:05:04.015Z,5.60
2019-03-31T01:07:35.741Z,5.60
2019-03-31T01:10:07.550Z,5.60
2019-03-31T01:12:39.128Z,5.20
2019-03-31T01:15:15.786Z,5.30
2019-03-31T01:17:47.324Z,5.30
2019-03-31T01:20:19.085Z,5.30
2019-03-31T01:22:50.485Z,5.30
2019-03-31T01:25:22.442Z,5.30
2019-03-31T01:27:54.008Z,5.30
2019-03-31T01:30:25.515Z,5.30
2019-03-31T01:32:57.245Z,5.40
2019-03-31T01:35:29.089Z,5.40
2019-03-31T01:38:00.356Z,5.40
2019-03-31T01:40:31.881Z,5.30
2019-03-31T01:43:03.307Z,5.30
2019-03-31T01:45:34.695Z,5.30
2019-03-31T01:48:07.243Z,5.30
2019-03-31T01:50:38.451Z,5.20
2019-03-31T01:53:09.664Z,5.20
2019-03-31T01:55:41.115Z,5.20
2019-03-31T01:58:12.774Z,5.20
2019-03-31T02:00:47.544Z,5.10
2019-03-31T02:03:18.837Z,5.10
2019-03-31T02:05:50.302Z,5.10
2019-03-31T02:08:21.670Z,5.10
2019-03-31T02:10:52.967Z,5.10
2019-03-31T02:13:24.207Z,5.10
2019-03-31T02:15:55.467Z,5.00
2019-03-31T02:18:26.658Z,5.00
2019-03-31T02:20:59.089Z,5.00
2019-03-31T02:23:30.497Z,4.90
2019-03-31T02:26:01.680Z,4.90
2019-03-31T02:28:32.889Z,4.40
2019-03-31T02:31:04.134Z,4.40
2019-03-31T02:33:35.446Z,4.40
2019-03-31T02:36:06.765Z,4.50
2019-03-31T02:38:37.985Z,4.40
2019-03-31T02:41:09.451Z,4.40
2019-03-31T02:43:40.816Z,4.10
2019-03-31T02:46:12.059Z,3.80
2019-03-31T02:48:43.388Z,3.70
2019-03-31T02:51:14.933Z,3.70
2019-03-31T02:53:46.102Z,3.50
2019-03-31T02:56:19.543Z,3.40
2019-03-31T02:58:52.224Z,3.30
2019-03-31T03:01:26.014Z,3.20
2019-03-31T03:03:59.302Z,3.10
2019-03-31T03:06:33.176Z,3.20
2019-03-31T03:09:06.805Z,3.10
2019-03-31T03:11:38.184Z,3.10
2019-03-31T03:14:10.408Z,3.00
2019-03-31T03:16:41.727Z,2.90
2019-03-31T03:19:12.928Z,2.80
2019-03-31T03:21:44.152Z,2.70
2019-03-31T03:24:15.357Z,2.70
2019-03-31T03:26:46.577Z,2.90
2019-03-31T03:29:17.705Z,2.90
2019-03-31T03:31:48.878Z,2.90
2019-03-31T03:34:20.054Z,3.00
2019-03-31T03:36:51.168Z,3.10
2019-03-31T03:39:22.416Z,3.20
2019-03-31T03:41:54.662Z,3.20
2019-03-31T03:44:26.012Z,3.10
2019-03-31T03:46:57.254Z,3.00
2019-03-31T03:49:28.556Z,3.00
2019-03-31T03:52:00.168Z,3.00
2019-03-31T03:54:31.416Z,3.10
2019-03-31T03:57:02.680Z,3.10
2019-03-31T03:59:33.876Z,2.90
2019-03-31T04:02:05.084Z,2.80
2019-03-31T04:04:36.305Z,2.80
2019-03-31T04:07:07.641Z,2.60
2019-03-31T04:09:38.860Z,2.50
2019-03-31T04:12:10.113Z,2.60
2019-03-31T04:14:41.384Z,2.60
2019-03-31T04:17:12.649Z,2.60
2019-03-31T04:19:43.993Z,2.70
2019-03-31T04:22:15.255Z,2.80
2019-03-31T04:24:46.436Z,2.70
2019-03-31T04:27:19.127Z,2.60
2019-03-31T04:29:50.594Z,2.70
2019-03-31T04:32:21.885Z,2.60
2019-03-31T04:34:53.245Z,2.50
2019-03-31T04:37:24.623Z,2.50
2019-03-31T04:39:55.855Z,2.70
2019-03-31T04:42:27.047Z,2.80
2019-03-31T04:44:58.469Z,2.80
2019-03-31T04:47:29.725Z,2.50
2019-03-31T04:50:01.021Z,2.30
2019-03-31T04:52:32.242Z,2.40
2019-03-31T04:55:03.481Z,2.50
2019-03-31T04:57:34.696Z,2.50
2019-03-31T05:00:06.071Z,2.50
2019-03-31T05:02:37.306Z,2.50
2019-03-31T05:05:08.582Z,2.50
2019-03-31T05:07:39.800Z,2.40
2019-03-31T05:10:11.309Z,2.50
2019-03-31T05:12:42.544Z,2.70
2019-03-31T05:15:13.736Z,2.80
2019-03-31T05:17:44.998Z,2.90
2019-03-31T05:20:16.286Z,2.90
2019-03-31T05:22:47.513Z,3.10
2019-03-31T05:25:18.908Z,3.00
2019-03-31T05:27:50.158Z,3.00
2019-03-31T05:30:21.262Z,2.90
2019-03-31T05:32:52.547Z,2.80
2019-03-31T05:35:26.945Z,3.00
2019-03-31T05:37:57.124Z,3.10
2019-03-31T05:40:30.692Z,3.30
2019-03-31T05:43:01.314Z,3.40
2019-03-31T05:45:32.617Z,3.60
2019-03-31T05:48:03.877Z,3.70
2019-03-31T05:50:35.077Z,3.90
2019-03-31T05:53:06.337Z,4.10
2019-03-31T05:55:37.622Z,4.20
2019-03-31T05:58:08.843Z,4.30
2019-03-31T06:00:48.201Z,4.40
2019-03-31T06:03:19.495Z,4.50
2019-03-31T06:05:50.762Z,4.50
2019-03-31T06:08:22.029Z,4.70
2019-03-31T06:10:53.227Z,4.80
2019-03-31T06:13:24.492Z,4.90
2019-03-31T06:15:55.818Z,5.10
2019-03-31T06:18:27.073Z,5.30
2019-03-31T06:20:58.247Z,5.40
2019-03-31T06:23:29.491Z,5.50
2019-03-31T06:26:00.787Z,5.60
2019-03-31T06:28:31.990Z,5.80
2019-03-31T06:31:03.351Z,5.90
2019-03-31T06:33:34.581Z,6.10
2019-03-31T06:36:06.627Z,6.20
2019-03-31T06:38:37.904Z,6.30
2019-03-31T06:41:09.169Z,6.50
2019-03-31T06:43:40.825Z,6.70
2019-03-31T06:46:12.033Z,6.90
2019-03-31T06:48:43.276Z,7.10
2019-03-31T06:51:17.066Z,7.20
2019-03-31T06:53:47.644Z,7.30
2019-03-31T06:56:18.812Z,7.60
2019-03-31T06:58:50.085Z,7.80
2019-03-31T07:01:21.416Z,8.10
2019-03-31T07:03:52.729Z,8.40
2019-03-31T07:06:24.067Z,8.80
2019-03-31T07:08:55.252Z,9.20
2019-03-31T07:11:26.560Z,9.70
2019-03-31T07:13:57.785Z,9.90
2019-03-31T07:16:28.948Z,10.20
2019-03-31T07:19:00.281Z,10.40
2019-03-31T07:21:31.518Z,10.80
2019-03-31T07:24:02.794Z,10.90
2019-03-31T07:26:33.929Z,11.30
2019-03-31T07:29:05.267Z,11.50
2019-03-31T07:31:36.445Z,12.00
2019-03-31T07:34:07.740Z,12.30
2019-03-31T07:36:38.883Z,12.70
2019-03-31T07:39:10.193Z,13.10
2019-03-31T07:41:41.542Z,13.50
2019-03-31T07:44:15.335Z,14.00
2019-03-31T07:46:45.885Z,14.50
2019-03-31T07:49:17.200Z,14.70
2019-03-31T07:51:48.545Z,15.00
2019-03-31T07:54:19.751Z,15.20
2019-03-31T07:56:50.963Z,15.70
2019-03-31T07:59:22.290Z,16.00
2019-03-31T08:01:53.382Z,16.30
2019-03-31T08:04:24.719Z,16.60
2019-03-31T08:06:56.025Z,17.10
2019-03-31T08:09:27.167Z,17.40
2019-03-31T08:11:58.436Z,17.60
2019-03-31T08:14:29.717Z,17.70
2019-03-31T08:17:01.030Z,17.90
2019-03-31T08:19:32.270Z,18.40
2019-03-31T08:22:03.523Z,18.70
2019-03-31T08:24:43.341Z,19.00
2019-03-31T08:27:16.346Z,19.40
2019-03-31T08:29:59.614Z,19.90
2019-03-31T08:32:20.672Z,20.10
2019-03-31T08:34:52.082Z,20.10
2019-03-31T08:37:23.476Z,19.90
2019-03-31T08:39:54.729Z,20.00
2019-03-31T08:42:26.172Z,20.50
2019-03-31T08:44:57.498Z,20.70
2019-03-31T08:47:28.720Z,21.20
2019-03-31T08:50:02.153Z,21.70
2019-03-31T08:52:33.009Z,21.80
2019-03-31T08:55:04.307Z,22.30
2019-03-31T08:57:35.570Z,22.10
2019-03-31T09:00:09.496Z,22.30
2019-03-31T09:02:40.774Z,22.40
2019-03-31T09:05:12.505Z,22.40
2019-03-31T09:07:43.900Z,22.80
2019-03-31T09:10:15.461Z,22.90
2019-03-31T09:12:48.550Z,23.10
2019-03-31T09:15:19.749Z,23.10
2019-03-31T09:17:54.088Z,23.00
2019-03-31T09:20:24.123Z,23.10
2019-03-31T09:22:55.376Z,23.50
2019-03-31T09:25:26.683Z,23.10
2019-03-31T09:27:58.037Z,23.40
2019-03-31T09:30:29.369Z,23.40
2019-03-31T09:33:00.610Z,23.30
2019-03-31T09:35:31.842Z,23.70
2019-03-31T09:38:03.156Z,23.60
2019-03-31T09:40:34.407Z,23.70
2019-03-31T09:43:05.666Z,24.20
2019-03-31T09:45:37.355Z,24.70
2019-03-31T09:48:08.670Z,25.40
2019-03-31T09:50:40.074Z,25.10
2019-03-31T09:53:11.400Z,25.30
2019-03-31T09:55:42.714Z,25.10
2019-03-31T09:58:14.227Z,24.40
2019-03-31T10:00:52.929Z,24.40
2019-03-31T10:03:24.361Z,24.60
2019-03-31T10:06:04.420Z,25.40
2019-03-31T10:08:28.752Z,25.30
2019-03-31T10:11:02.857Z,25.20
2019-03-31T10:13:33.559Z,25.90
2019-03-31T10:16:04.874Z,26.00
2019-03-31T10:18:36.222Z,26.10
2019-03-31T10:21:07.419Z,25.90
2019-03-31T10:23:38.724Z,26.60
2019-03-31T10:26:10.087Z,26.00
2019-03-31T10:28:43.306Z,26.40
2019-03-31T10:31:14.572Z,26.20
2019-03-31T10:33:45.768Z,26.20
2019-03-31T10:36:16.902Z,25.20
2019-03-31T10:38:48.206Z,25.80
2019-03-31T10:41:19.442Z,25.60
2019-03-31T10:43:50.722Z,26.80
2019-03-31T10:46:22.034Z,26.80
2019-03-31T10:48:53.396Z,27.60
2019-03-31T10:51:24.677Z,28.40
2019-03-31T10:53:56.030Z,27.60
2019-03-31T10:56:27.361Z,28.00
2019-03-31T10:58:58.712Z,27.40
2019-03-31T11:01:29.983Z,27.80
2019-03-31T11:04:01.313Z,27.90
2019-03-31T11:06:32.620Z,28.20
2019-03-31T11:09:06.187Z,28.60
2019-03-31T11:11:37.524Z,28.50
2019-03-31T11:14:08.763Z,27.80
2019-03-31T11:16:39.959Z,27.70
2019-03-31T11:19:11.233Z,28.70
2019-03-31T11:22:01.344Z,29.30
2019-03-31T11:24:32.668Z,28.80
2019-03-31T11:27:03.913Z,28.10
2019-03-31T11:29:35.250Z,27.90
2019-03-31T11:32:06.724Z,28.00
2019-03-31T11:34:37.973Z,28.40
2019-03-31T11:37:13.834Z,28.70
2019-03-31T11:39:42.288Z,29.70
2019-03-31T11:42:13.617Z,29.40
2019-03-31T11:44:44.994Z,29.10
2019-03-31T11:47:16.339Z,29.10
2019-03-31T11:49:47.678Z,29.20
2019-03-31T11:52:18.980Z,29.20
2019-03-31T11:54:50.148Z,29.70
2019-03-31T11:57:21.475Z,29.80
2019-03-31T11:59:52.815Z,30.10
2019-03-31T12:02:27.483Z,29.90
2019-03-31T12:04:58.208Z,30.60
2019-03-31T12:07:29.484Z,31.30
2019-03-31T12:10:01.004Z,32.00
2019-03-31T12:12:32.229Z,31.70
2019-03-31T12:15:03.604Z,30.80
2019-03-31T12:17:34.748Z,30.80
2019-03-31T12:20:06.605Z,30.20
2019-03-31T12:22:37.902Z,29.70
2019-03-31T12:25:09.394Z,30.50
2019-03-31T12:27:40.530Z,29.80
2019-03-31T12:30:12.014Z,29.10
2019-03-31T12:32:43.216Z,30.20
2019-03-31T12:35:14.464Z,30.40
2019-03-31T12:37:45.740Z,30.90
2019-03-31T12:40:34.388Z,32.00
2019-03-31T12:43:06.053Z,33.10
2019-03-31T12:45:37.319Z,33.40
2019-03-31T12:48:08.695Z,33.00
2019-03-31T12:50:40.101Z,33.40
2019-03-31T12:53:11.354Z,34.30
2019-03-31T12:55:42.694Z,34.50
2019-03-31T12:58:13.906Z,32.40
2019-03-31T13:00:45.270Z,32.50
2019-03-31T13:03:16.669Z,31.50
2019-03-31T13:05:47.905Z,31.80
2019-03-31T13:08:19.166Z,32.30
2019-03-31T13:10:50.504Z,32.70
2019-03-31T13:13:21.833Z,31.80
2019-03-31T13:15:53.087Z,31.80
2019-03-31T13:18:27.710Z,30.50
2019-03-31T13:20:57.359Z,30.30
2019-03-31T13:23:28.552Z,28.30
2019-03-31T13:25:59.815Z,28.20
2019-03-31T13:28:31.114Z,28.10
2019-03-31T13:31:02.556Z,27.90
2019-03-31T13:33:33.822Z,27.20
2019-03-31T13:36:05.104Z,27.00
2019-03-31T13:38:36.447Z,26.00
2019-03-31T13:41:07.773Z,25.00
2019-03-31T13:43:39.169Z,24.10
2019-03-31T13:46:10.570Z,23.40
2019-03-31T13:48:41.955Z,22.70
2019-03-31T13:51:13.380Z,22.90
2019-03-31T13:53:44.754Z,22.70
2019-03-31T13:56:16.514Z,22.30
2019-03-31T13:58:52.415Z,21.70
2019-03-31T14:01:21.102Z,21.60
2019-03-31T14:03:52.427Z,21.30
2019-03-31T14:06:23.710Z,21.10
2019-03-31T14:08:54.920Z,21.20
2019-03-31T14:11:26.124Z,21.30
2019-03-31T14:13:57.517Z,21.30
2019-03-31T14:16:29.213Z,21.50
2019-03-31T14:19:00.640Z,21.30
2019-03-31T14:21:32.031Z,21.40
2019-03-31T14:24:03.301Z,21.30
2019-03-31T14:26:34.572Z,21.50
2019-03-31T14:29:06.002Z,21.70
2019-03-31T14:31:37.319Z,21.80
2019-03-31T14:34:08.685Z,21.90
2019-03-31T14:36:40.005Z,22.60
2019-03-31T14:39:11.641Z,23.00
2019-03-31T14:41:42.934Z,23.00
2019-03-31T14:44:14.177Z,22.30
2019-03-31T14:46:45.510Z,22.50
2019-03-31T14:49:18.480Z,23.20
2019-03-31T14:51:49.914Z,23.60
2019-03-31T14:54:21.196Z,23.90
2019-03-31T14:56:52.458Z,23.90
2019-03-31T14:59:23.741Z,23.30
2019-03-31T15:01:55.053Z,22.70
2019-03-31T15:04:26.296Z,22.10
2019-03-31T15:06:57.581Z,21.50
2019-03-31T15:09:28.871Z,21.00
2019-03-31T15:12:00.443Z,20.40
2019-03-31T15:14:31.671Z,20.00
2019-03-31T15:17:02.979Z,19.60
2019-03-31T15:19:34.243Z,19.30
2019-03-31T15:22:05.502Z,19.00
2019-03-31T15:24:38.782Z,18.90
2019-03-31T15:27:09.912Z,18.80
2019-03-31T15:29:41.078Z,18.60
2019-03-31T15:32:15.272Z,18.30
2019-03-31T15:34:46.716Z,18.10
2019-03-31T15:37:20.766Z,17.90
2019-03-31T15:39:53.502Z,17.80
2019-03-31T15:42:26.845Z,17.70
2019-03-31T15:44:58.675Z,17.80
2019-03-31T15:47:48.873Z,17.80
2019-03-31T15:50:21.384Z,17.90
2019-03-31T15:52:53.619Z,17.90
2019-03-31T15:55:25.600Z,17.80
2019-03-31T15:58:05.294Z,17.90
2019-03-31T16:00:37.532Z,17.90
2019-03-31T16:03:09.568Z,17.90
2019-03-31T16:05:41.306Z,17.90
2019-03-31T16:08:12.693Z,17.90
2019-03-31T16:10:43.984Z,17.80
2019-03-31T16:13:15.138Z,17.80
2019-03-31T16:15:48.692Z,17.60
2019-03-31T16:18:19.967Z,17.60
2019-03-31T16:20:52.968Z,17.50
2019-03-31T16:23:23.384Z,17.40
2019-03-31T16:25:56.209Z,17.30
2019-03-31T16:28:26.635Z,17.20
2019-03-31T16:30:57.519Z,17.20
2019-03-31T16:33:27.916Z,17.10
2019-03-31T16:35:59.895Z,17.00
2019-03-31T16:38:31.542Z,17.00
2019-03-31T16:41:03.001Z,17.00
2019-03-31T16:43:45.648Z,16.90
2019-03-31T16:46:21.491Z,16.90
2019-03-31T16:48:54.609Z,16.90
2019-03-31T16:51:29.322Z,16.70
2019-03-31T16:54:02.089Z,16.60
2019-03-31T16:56:33.648Z,16.60
2019-03-31T16:59:05.775Z,16.50
2019-03-31T17:01:41.794Z,16.40
2019-03-31T17:04:13.791Z,16.30
2019-03-31T17:06:45.686Z,16.10
2019-03-31T17:09:24.749Z,16.00
2019-03-31T17:12:04.325Z,15.80
2019-03-31T17:14:35.754Z,16.00
2019-03-31T17:17:07.955Z,15.90
2019-03-31T17:19:42.407Z,15.80
2019-03-31T17:22:12.978Z,15.60
2019-03-31T17:24:43.470Z,15.50
2019-03-31T17:27:14.242Z,15.50
2019-03-31T17:29:44.841Z,15.30
2019-03-31T17:32:15.194Z,15.10
2019-03-31T17:34:45.673Z,15.00
2019-03-31T17:37:16.166Z,14.80
2019-03-31T17:39:46.699Z,14.80
2019-03-31T17:42:17.158Z,14.70
2019-03-31T17:44:47.514Z,14.50
2019-03-31T17:47:17.945Z,14.40
2019-03-31T17:49:48.424Z,14.30
2019-03-31T17:52:18.828Z,14.20
2019-03-31T17:54:49.247Z,14.00
2019-03-31T17:57:19.678Z,13.90
2019-03-31T17:59:50.100Z,13.80
2019-03-31T18:02:20.693Z,13.80
2019-03-31T18:04:51.080Z,13.60
2019-03-31T18:07:21.526Z,13.60
2019-03-31T18:09:52.045Z,13.50
2019-03-31T18:12:22.445Z,13.40
2019-03-31T18:14:52.974Z,13.30
2019-03-31T18:17:23.377Z,13.00
2019-03-31T18:19:53.845Z,12.80
2019-03-31T18:22:24.325Z,12.50
2019-03-31T18:24:54.929Z,12.30
2019-03-31T18:27:25.364Z,12.10
2019-03-31T18:29:55.883Z,12.00
2019-03-31T18:32:26.411Z,11.80
2019-03-31T18:34:56.958Z,11.70
2019-03-31T18:37:27.538Z,11.60
2019-03-31T18:39:57.809Z,11.50
2019-03-31T18:42:28.257Z,11.50
2019-03-31T18:44:58.694Z,11.50
2019-03-31T18:47:29.072Z,11.50
2019-03-31T18:49:59.534Z,11.50
2019-03-31T18:52:29.958Z,11.50
2019-03-31T18:55:28.619Z,11.40
2019-03-31T18:58:30.121Z,11.40
2019-03-31T19:01:11.155Z,11.30
2019-03-31T19:03:55.492Z,11.20
2019-03-31T19:06:50.267Z,11.20
2019-03-31T19:09:32.876Z,11.10
2019-03-31T19:12:21.180Z,11.00
2019-03-31T19:15:16.519Z,11.10
2019-03-31T19:18:07.297Z,11.10
2019-03-31T19:20:52.104Z,10.90
2019-03-31T19:23:56.842Z,10.80
2019-03-31T19:26:51.868Z,10.70
2019-03-31T19:29:38.344Z,10.70
2019-03-31T19:32:26.562Z,10.50
2019-03-31T19:35:25.214Z,10.40
2019-03-31T19:38:17.408Z,10.30
2019-03-31T19:41:15.669Z,10.30
2019-03-31T19:44:00.580Z,10.30
2019-03-31T19:46:41.610Z,10.30
2019-03-31T19:49:31.016Z,10.20
2019-03-31T19:52:19.226Z,10.20
2019-03-31T19:55:07.186Z,10.20
2019-03-31T19:57:53.980Z,10.10
2019-03-31T20:00:55.751Z,10.10
2019-03-31T20:03:57.584Z,10.00
2019-03-31T20:06:45.204Z,10.00
2019-03-31T20:09:33.529Z,9.90
2019-03-31T20:12:22.871Z,9.90
2019-03-31T20:15:04.560Z,9.90
2019-03-31T20:18:06.237Z,9.90
2019-03-31T20:21:00.801Z,9.90
2019-03-31T20:23:40.400Z,10.00
2019-03-31T20:26:39.079Z,10.10
2019-03-31T20:29:31.261Z,10.30
2019-03-31T20:32:36.099Z,10.50
2019-03-31T20:35:24.031Z,10.60
2019-03-31T20:38:18.183Z,10.80
2019-03-31T20:41:19.772Z,11.10
2019-03-31T20:43:58.099Z,11.30
2019-03-31T20:46:28.586Z,11.40
2019-03-31T20:48:59.077Z,11.60
2019-03-31T20:51:29.797Z,11.60
2019-03-31T20:54:00.724Z,11.70
2019-03-31T20:56:31.381Z,11.70
2019-03-31T20:59:01.969Z,11.70
2019-03-31T21:01:32.542Z,11.70
2019-03-31T21:04:03.225Z,11.70
2019-03-31T21:06:33.798Z,11.70
2019-03-31T21:09:06.590Z,11.70
2019-03-31T21:11:37.206Z,11.70
2019-03-31T21:14:07.543Z,11.60
2019-03-31T21:16:38.117Z,11.60
2019-03-31T21:19:08.646Z,11.60
2019-03-31T21:21:39.101Z,11.60
2019-03-31T21:24:13.462Z,11.50
2019-03-31T21:26:47.262Z,11.50
2019-03-31T21:29:20.734Z,11.50
2019-03-31T21:31:55.967Z,11.50
2019-03-31T21:34:28.394Z,11.40
2019-03-31T21:37:03.844Z,11.40
2019-03-31T21:39:37.680Z,11.40
2019-03-31T21:42:10.649Z,11.30
2019-03-31T21:44:44.952Z,11.30
2019-03-31T21:47:16.228Z,11.30
2019-03-31T21:49:46.773Z,11.20
2019-03-31T21:52:17.401Z,11.30
2019-03-31T21:54:47.863Z,11.20
2019-03-31T21:57:18.352Z,11.20
2019-03-31T21:59:48.662Z,11.10
2019-03-31T22:02:19.156Z,11.10
2019-03-31T22:04:49.677Z,11.00
2019-03-31T22:07:20.607Z,11.00
2019-03-31T22:09:51.167Z,11.00
2019-03-31T22:12:21.649Z,11.00
2019-03-31T22:14:52.165Z,11.00
2019-03-31T22:17:22.675Z,10.90
2019-03-31T22:19:53.091Z,10.90
2019-03-31T22:22:23.589Z,10.90
2019-03-31T22:24:54.413Z,10.80
2019-03-31T22:27:24.875Z,10.90
2019-03-31T22:29:55.341Z,10.80
2019-03-31T22:32:25.951Z,10.80
2019-03-31T22:34:56.408Z,10.70
2019-03-31T22:37:27.125Z,10.60
2019-03-31T22:39:57.723Z,10.60
2019-03-31T22:42:28.298Z,10.60
2019-03-31T22:44:58.699Z,10.60
2019-03-31T22:47:29.182Z,10.60
2019-03-31T22:49:59.627Z,10.50
2019-03-31T22:52:30.353Z,10.50
2019-03-31T22:55:01.026Z,10.50
2019-03-31T22:57:31.523Z,10.50
2019-03-31T23:00:02.010Z,10.50
2019-03-31T23:02:32.441Z,10.50
2019-03-31T23:05:02.922Z,10.50
2019-03-31T23:07:33.615Z,10.50
2019-03-31T23:10:04.153Z,10.40
2019-03-31T23:12:34.624Z,10.40
2019-03-31T23:15:05.172Z,10.40
2019-03-31T23:17:35.765Z,10.40
2019-03-31T23:20:06.654Z,10.40
2019-03-31T23:22:37.158Z,10.30
2019-03-31T23:25:07.829Z,10.20
2019-03-31T23:27:38.309Z,10.20
2019-03-31T23:30:10.444Z,10.10
2019-03-31T23:32:40.954Z,10.10
2019-03-31T23:35:11.417Z,10.10
2019-03-31T23:37:42.040Z,10.10
2019-03-31T23:40:12.422Z,10.00
2019-03-31T23:42:42.871Z,10.00
2019-03-31T23:45:13.232Z,9.90
2019-03-31T23:47:43.730Z,9.80
2019-03-31T23:50:14.290Z,9.80
2019-03-31T23:52:44.798Z,9.80
2019-03-31T23:55:15.219Z,9.80
2019-03-31T23:57:46.158Z,9.80
